Valrico, FL (33594)

6:02 PM EDT on October 23, 2014 (GMT -0400)
Buckhorn Ridge | Change Station
CLOSE
Current Station
Personal Weather Station
Location: Valrico, FL
Elevation: 95 ft
Nearby Weather Stations

Elev 95 ft 27.91 °N, 82.23 °W | Updated 5 seconds ago

Clear
Clear
81.0 °F
Feels Like 81 °F
N
5.0
Wind Variable Wind from ENE
Gusts 5.0 mph

Today
High -- | Low -- °F
--% Chance of Precip.
Yesterday
High -- | Low -- °F
Precip. -- in
7:34 AM 6:52 PM
New Moon, 0% visible
Pressure 29.93 in
Visibility 10.0 miles
Clouds Clear
Heat Index 81 °F
Dew Point 58 °F
Humidity 45%
Rainfall 0.00 in
Snow Depth Not available.
UV 1 out of 12
Pollen 6.40 out of 12
Air Quality Not available.
Flu Activity Local Activity
METAR KPCM 232155Z AUTO 09005KT 10SM CLR 28/11 A2993 RMK AO2

More Conditions Fewer Conditions

Pressure 29.93 in
Visibility 10.0 miles
Clouds Clear
Heat Index 81 °F
Dew Point 58 °F
Humidity 45%
Rainfall 0.00 in
Snow Depth Not available.
UV 1 out of 12
Pollen 6.40 out of 12
Air Quality Not available.
Flu Activity Local Activity
METAR KPCM 232155Z AUTO 09005KT 10SM CLR 28/11 A2993 RMK AO2

More Conditions Fewer Conditions

10-Day Weather Forecast

Almanac

Astronomy

Oct. 23, 2014 Rise Set
Actual Time 7:34 AM EDT 6:52 PM EDT
Civil Twilight 7:10 AM EDT 7:15 PM EDT
Nautical Twilight 6:42 AM EDT 7:43 PM EDT
Astronomical Twilight 6:15 AM EDT 8:10 PM EDT
Moon 7:14 AM EDT 6:52 PM EDT
Length of Visible Light 12h 05m
Length of Day
11h 17m
Tomorrow will be 1m 32s shorter.
New Moon, 0% of the Moon is Illuminated
Today
New Moon
Oct 30
First Quarter
Nov 6
Full
Nov 14
Last Quarter
Nov 22
New

Today's Extremes

State Highs State Lows

Community

WunderPhotos

Upload Photos

1,764,383 photos uploaded!

WunderBlogs® & News

Nearby

Snow Depth

Station Depth Elevation
No new snow has been reported.

Earthquake Activity

City Distance Mag. Time & Date
No recent earthquake activity has been reported nearby.
Minimum magnitude displayed is 2.5.

Coastal Water Temperatures

Place Temperature
St Petersburg, FL 81.0 °F
Old Port Tampa, FL 78.1 °F
McKay Bay Entrance, FL 80.1 °F

Nearby Weather Stations